NWS Home NWS Lubbock West Texas Mesonet Central Sector Latest Conditions as of 0946 PM, Sun Sep 15, 2019

Latest   N   C   S   Daily Sum   3hrΔ   24hrΔ   Soil Data 
Site Map   24hr Precip   72hr Precip   Google Plot


Station Time of Last Temp Dew Pt. RH Wind Direction Wind Speed Wind Gust Max Wind Max Temp Min Temp Max RH Min RH Altimeter 1HR Rain Today's Rain Solar Rad
Abernathy 5ENE  09:40 PM 71 53 54% S89 22 mph 175° @ 0145 PM 88 61 88 28 30.14" 0 0.00 0
Aiken 3WSW  09:40 PM 69 59 70% SE67 23 mph 159° @ 0514 PM 88 61 92 29 30.15" 0 0.00 0
Amherst 1NE  09:40 PM 70 55 60% S34 23 mph 148° @ 0235 PM 86 61 90 32 30.15" 0 0.00 0
Anton 6SSW  09:40 PM 75 53 47% SE68 24 mph 149° @ 0330 PM 88 61 89 28 30.14" 0 0.00 0
Aspermont 3NE  09:40 PM 79 55 45% SE68 19 mph 149° @ 0445 PM 96 61 85 24 30.05" 0 0.00 0
Bootleg 11WNW  09:40 PM 72 47 41% S1011 31 mph 171° @ 0344 PM 87 62 73 26 30.21" 0 0.00 0
Brownfield 2S  09:40 PM 74 53 50% SE78 22 mph 160° @ 0245 PM 88 63 83 27 30.13" 0 0.00 0
Caprock Canyons State Park  09:40 PM 74 57 57% S66 23 mph 140° @ 0432 PM 91 69 67 24 30.11" 0 0.00 0
Childress 2NNE  09:40 PM 78 59 53% SE910 22 mph 153° @ 0350 PM 94 68 82 25 30.06" 0 0.00 0
Clarendon 2WSW  09:40 PM 80 50 36% SE1115 24 mph 184° @ 0305 PM 92 65 75 23 30.11" 0 0.00 0
Claude 12SW  09:40 PM 75 52 44% S55 24 mph 199° @ 0227 PM 90 69 63 25 30.14" 0 0.00 0
Crowell 1E  09:40 PM 81 63 54% SE78 22 mph 157° @ 0507 PM 98 71 78 23 30.05" 0 0.00 0
Denver City 7WNW  09:40 PM 69 51 54% E77 24 mph 163° @ 0215 PM 87 62 83 24 30.14" 0 0.00 0
Dimmitt 2NE  09:40 PM 70 57 65% S89 26 mph 197° @ 0115 PM 85 61 89 33 30.16" 0 0.00 0
Dora NM 2SW  09:40 PM 71 50 49% SE1013 27 mph 162° @ 0140 PM 86 60 85 25 30.18" 0 0.00 0
Earth 9WSW  09:40 PM 69 54 61% S1111 23 mph 186° @ 1140 AM 89 59 94 27 30.17" 0 0.00 0
Estelline 3SSE  09:40 PM 80 60 50% SE89 22 mph 136° @ 0327 PM 95 66 90 26 30.06" 0 0.00 0
Floydada 2NNE  09:40 PM 72 56 58% SE78 23 mph 194° @ 0220 PM 90 64 80 25 30.13" 0 0.00 0
Fluvanna 3WNW  09:40 PM 77 52 44% SE67 22 mph 137° @ 0230 PM 90 65 72 26 30.10" 0 0.00 0
Friona 2NE  09:40 PM 68 52 58% SE78 27 mph 181° @ 0320 PM 86 58 91 27 30.18" 0 0.00 0
Gail 2ESE  09:40 PM 76 51 43% SE67 24 mph 182° @ 1230 PM 93 62 81 23 30.09" 0 0.00 0
Goodlett 3W  09:40 PM 81 61 53% SE89 21 mph 165° @ 0335 PM 95 69 82 24 30.04" 0 0.00 0
Graham 5SSW  09:40 PM 80 50 36% SE710 24 mph 128° @ 0320 PM 90 69 64 24 30.11" 0 0.00 0
Guthrie 10WSW  09:40 PM 81 52 39% SE810 21 mph 123° @ 0705 PM 96 68 75 21 30.06" 0 0.00 0
Hackberry 2 SSE  09:40 PM 82 60 47% SE912 21 mph 145° @ 0457 PM 96 68 81 23 30.06" 0 0.00 0
Happy 1E  09:40 PM 67 58 72% S77 25 mph 216° @ 1255 PM 87 61 89 31 30.16" 0 0.00 0
Hart 3N  09:40 PM 69 56 65% SE57 22 mph 182° @ 0145 PM 87 60 90 27 30.16" 0 0.00 0
Haskell 1NW  09:40 PM 82 58 47% E57 18 mph 133° @ 0345 PM 94 67 82 28 30.04" 0 0.00 0
Hereford 2NW  09:40 PM 73 53 51% SE79 26 mph 176° @ 0345 PM 87 59 80 27 30.16" 0 0.00 0
Hobbs NM 5NW  09:40 PM 77 46 34% SE1011 27 mph 146° @ 0146 PM 87 65 69 23 30.16" 0 0.00 0
Jayton 1SSE  09:40 PM 81 53 39% SE79 30 mph 138° @ 0635 PM 95 68 73 24 30.06" 0 0.00 0
Knox City 3NW  09:40 PM 83 58 45% E89 20 mph 125° @ 0545 PM 98 67 79 24 30.04" 0 0.00 0
Lake Alan Henry 1NW  09:40 PM 80 57 46% SE56 22 mph 143° @ 0339 PM 95 67 71 24 30.08" 0 0.00 0
Lamesa 2SE  09:40 PM 77 52 44% SE78 19 mph 154° @ 0125 PM 89 63 76 27 30.12" 0 0.00 0
Lesley 2S  09:40 PM 79 56 46% SE88 23 mph 168° @ 0419 PM 97 66 78 22 30.06" 0 0.00 0
Levelland 4S  09:40 PM 70 53 56% SE67 23 mph 152° @ 0410 PM 87 60 89 25 30.15" 0 0.00 0
Lubbock 3WNW TTU  09:40 PM 78 51 40% SE710 23 mph 159° @ 0225 PM 90 66 68 25 30.13" 0 0.00 0
Memphis 1NE  09:40 PM 79 54 45% SE56 22 mph 118° @ 0420 PM 94 63 88 24 30.06" 0 0.00 0
Morton 1ENE  09:40 PM 73 51 46% SE810 22 mph 141° @ 0430 PM 88 61 87 26 30.15" 0 0.00 0
Muleshoe 2SSW  09:40 PM 69 51 55% S89 26 mph 167° @ 0225 PM 87 59 89 26 30.16" 0 0.00 0
New Home  09:40 PM 72 58 61% SE56 21 mph 170° @ 0200 PM 89 65 81 29 30.15" 0 0.00 0
Northfield 1S  09:40 PM 81 55 43% SE1013 20 mph 227° @ 1150 AM 95 68 73 23 30.06" 0 0.00 0
O'Donnell 1N  09:40 PM 77 52 43% E78 19 mph 105° @ 0150 PM 91 65 69 26 30.12" 0 0.00 0
Odell 4ENE  09:40 PM 82 64 53% SE1011 30 mph 149° @ 0325 PM 98 72 75 22 30.05" 0 0.00 0
Olton 6S  09:40 PM 71 53 53% S1011 22 mph 162° @ 0225 PM 88 61 88 26 30.14" 0 0.00 0
Paducah 10SW  09:40 PM 78 57 49% SE79 18 mph 143° @ 0320 PM 94 67 81 24 30.07" 0 0.00 0
Palo Duro 4E (JA Ranch)  09:40 PM 71 59 66% S23 22 mph 188° @ 0227 PM 93 59 95 28 30.09" 0 0.00 0
Palo Duro Canyon SP Floor  09:40 PM 79 54 41% SE56 26 mph 134° @ 0341 PM 94 61 87 24 30.10" 0 0.00 0
Palo Duro Canyon State Park Rim  09:40 PM 77 52 41% SE45 24 mph 197° @ 0403 PM 91 64 77 26 30.15" 0 0.00 0
Plains 3N  09:40 PM 72 51 51% SE68 25 mph 157° @ 0355 PM 86 62 82 30 30.15" 0 0.00 0
Plainview 1S  09:40 PM 74 56 54% SE35 20 mph 155° @ 0445 PM 89 62 90 29 30.13" 0 0.00 0
Post 1NE  09:40 PM 79 49 37% S56 24 mph 174° @ 0445 PM 93 66 69 20 30.10" 0 0.00 0
Ralls 1SE  09:40 PM 74 53 50% SE89 24 mph 158° @ 0210 PM 90 63 80 25 30.14" 0 0.00 0
Reese Center  09:40 PM 77 54 46% SE911 24 mph 146° @ 0310 PM 89 64 77 27 30.14" 0 0.00 0
Roaring Springs 3N  09:40 PM 78 58 52% SE810 22 mph 156° @ 0335 PM 92 66 83 28 30.10" 0 0.00 0
Rotan 5W  09:40 PM 77 57 49% E66 22 mph 79° @ 1246 PM 94 66 82 27 30.08" 0 0.00 0
Seagraves 1SW  09:40 PM 74 53 49% SE56 29 mph 159° @ 0225 PM 88 61 88 27 30.13" 0 0.00 0
Seminole 2NNE  09:40 PM 73 51 47% SE67 25 mph 167° @ 0310 PM 89 61 82 21 30.12" 0 0.00 0
Seymour 3NW  09:40 PM 79 61 59% E67 24 mph 139° @ 0300 PM 97 70 76 29 30.03" 0 0.00 0
Silverton 7ESE  09:40 PM 70 55 61% SE1012 20 mph 147° @ 0400 PM 90 64 82 26 30.13" 0 0.00 0
Slaton 2NE  09:40 PM 74 56 55% S89 22 mph 134° @ 0420 PM 90 63 87 24 30.13" 0 0.00 0
Smyer  09:40 PM 77 54 44% SE57 21 mph 142° @ 0335 PM 89 63 79 28 30.14" 0 0.00 0
Snyder 3E  09:35 PM 77 56 50% E77 20 mph 135° @ 0550 PM 93 68 75 25 30.08" 0 0.00 0
Snyder 3SSW  09:40 PM 77 58 51% E44 19 mph 177° @ 0120 PM 93 66 80 27 30.09" 0 0.00 0
South Plains 3ENE  09:40 PM 71 57 60% SE67 22 mph 158° @ 0505 PM 91 61 95 26 30.13" 0 0.00 0
Spur 1W  09:40 PM 79 53 42% SE35 21 mph 163° @ 0620 PM 93 64 93 24 30.07" 0 0.00 0
Stamford 5ESE  09:40 PM 81 56 41% SE78 20 mph 134° @ 0431 PM 98 68 77 24 30.05" 0 0.00 0
Sundown 8WSW  09:40 PM 69 51 54% SE89 29 mph 161° @ 1220 PM 88 60 86 26 30.15" 0 0.00 0
Tahoka 3NNE  09:40 PM 78 52 41% SE911 21 mph 155° @ 0502 PM 91 66 69 23 30.12" 0 0.00 0
Tatum NM 2SW  09:40 PM 69 52 57% SE89 32 mph 155° @ 0415 PM 87 60 89 26 30.16" 0 0.00 0
Throckmorton 1SW  09:40 PM 79 64 59% SE56 17 mph 106° @ 0211 PM 96 66 92 30 30.04" 0 0.00 0
Tulia 2ENE  09:40 PM 71 57 63% S56 23 mph 209° @ 1235 PM 87 62 90 32 30.14" 0 0.00 0
Turkey 2WSW  09:40 PM 76 59 56% SE78 23 mph 178° @ 1245 PM 92 68 81 28 30.08" 0 0.00 0
Umbarger 3NNE  09:40 PM 70 50 49% S77 29 mph 180° @ 0436 PM 89 64 76 25 30.16" 0 0.00 0
Vigo Park  09:40 PM 72 58 61% SE78 24 mph 198° @ 1259 PM 89 61 93 27 30.15" 0 0.00 0
Weinert 2NNE  09:40 PM 80 59 49% E78 19 mph 120° @ 0531 PM 97 69 72 24 30.05" 0 0.00 0
Welch  09:40 PM 71 55 56% SE77 24 mph 143° @ 0306 PM 89 62 86 28 30.13" 0 0.00 0
White River Lake 6NW  09:40 PM 78 53 43% SE810 21 mph 138° @ 0355 PM 92 68 69 24 30.10" 0 0.00 0
Wolfforth 6SSW  09:40 PM 73 55 55% SE78 27 mph 140° @ 0545 PM 89 64 81 26 30.14" 0 0.00 0

West Texas Mesonet Home   Site Map/Menu  NWS Lubbock Soil Data  Daily Summary Page  24hr Precip  72hr Precip  Google Plot